Time;durP1;ratioP1;P1;durP2;ratioP2;P2;SDS_P1;SDS_P2;PMS_P1;PMS_P2;Temp;Humidity;BMP_temperature;BMP_pressure;BME280_temperature;BME280_humidity;BME280_pressure;Samples;Min_cycle;Max_cycle;Signal;HPM_P1;HPM_P2
2021/12/06 00:00:26;;;;;;;4.10;3.42;;;1.20;99.90;;;;;;4889508;29;20054;-78
2021/12/06 00:02:54;;;;;;;9.60;3.22;;;1.10;99.90;;;;;;4899666;29;20059;-78
2021/12/06 00:05:23;;;;;;;3.97;3.00;;;1.10;99.90;;;;;;4881638;29;20080;-78
2021/12/06 00:07:49;;;;;;;9.00;3.65;;;1.00;99.90;;;;;;4890824;29;20020;-79
2021/12/06 00:10:15;;;;;;;7.50;4.90;;;1.10;99.90;;;;;;4907789;29;20088;-79
2021/12/06 00:12:42;;;;;;;8.55;5.72;;;1.20;99.90;;;;;;4906711;29;20511;-79
2021/12/06 00:15:10;;;;;;;5.97;4.47;;;1.00;99.90;;;;;;4888990;29;20112;-78
2021/12/06 00:17:36;;;;;;;3.85;3.53;;;1.00;99.90;;;;;;4909096;29;20541;-78
2021/12/06 00:20:05;;;;;;;3.88;3.58;;;0.90;99.90;;;;;;4908800;29;20150;-78
2021/12/06 00:22:32;;;;;;;3.88;3.58;;;1.10;99.90;;;;;;4892438;29;20060;-78
2021/12/06 00:24:58;;;;;;;9.15;4.55;;;1.00;99.90;;;;;;4887588;29;20051;-78
2021/12/06 00:27:24;;;;;;;7.65;3.15;;;1.10;99.90;;;;;;4907136;29;20353;-79
2021/12/06 00:29:51;;;;;;;4.40;4.03;;;1.10;99.90;;;;;;4906601;29;20056;-78
2021/12/06 00:32:17;;;;;;;6.72;5.00;;;1.20;99.90;;;;;;4907280;29;20269;-78
2021/12/06 00:34:43;;;;;;;6.90;5.18;;;1.30;99.90;;;;;;4880148;29;20401;-78
2021/12/06 00:37:19;;;;;;;11.57;4.85;;;1.30;99.90;;;;;;4907162;29;20362;-79
2021/12/06 00:39:58;;;;;;;4.50;2.60;;;1.30;99.90;;;;;;4881093;29;20028;-78
2021/12/06 00:42:27;;;;;;;6.13;3.83;;;1.20;99.90;;;;;;4891733;29;20135;-79
2021/12/06 00:44:53;;;;;;;5.47;4.13;;;1.20;99.90;;;;;;4905911;29;20032;-78
2021/12/06 00:47:19;;;;;;;9.48;4.32;;;1.10;99.90;;;;;;4890538;29;20131;-78
2021/12/06 00:49:46;;;;;;;4.85;3.88;;;1.10;99.90;;;;;;4907372;29;20028;-78
2021/12/06 00:52:13;;;;;;;8.90;5.05;;;0.90;99.90;;;;;;4906853;29;20020;-78
2021/12/06 00:54:40;;;;;;;10.25;5.55;;;1.00;99.90;;;;;;4907609;29;20024;-78
2021/12/06 00:57:09;;;;;;;10.23;3.70;;;0.90;99.90;;;;;;4889993;29;20520;-78
2021/12/06 00:59:36;;;;;;;6.35;4.22;;;0.90;99.90;;;;;;4908159;29;20027;-78
2021/12/06 01:02:03;;;;;;;4.82;2.70;;;0.90;99.90;;;;;;4890729;29;20060;-78
2021/12/06 01:04:31;;;;;;;4.18;3.63;;;0.90;99.90;;;;;;4890578;29;20064;-78
2021/12/06 01:06:57;;;;;;;4.43;2.47;;;1.00;99.90;;;;;;4907257;29;20497;-78
2021/12/06 01:09:24;;;;;;;3.60;3.30;;;0.90;99.90;;;;;;4891815;29;20032;-78
2021/12/06 01:11:50;;;;;;;2.88;2.67;;;0.90;99.90;;;;;;4892567;29;20412;-78
2021/12/06 01:14:16;;;;;;;3.75;2.50;;;0.90;99.90;;;;;;4908748;29;20031;-78
2021/12/06 01:16:42;;;;;;;3.45;3.20;;;0.90;99.90;;;;;;4891357;29;20126;-78
2021/12/06 01:19:08;;;;;;;3.45;3.13;;;0.20;99.90;;;;;;4907799;29;20126;-78
2021/12/06 01:21:47;;;;;;;2.55;2.40;;;0.90;99.90;;;;;;4907404;29;20084;-78
2021/12/06 01:24:16;;;;;;;3.33;2.53;;;0.90;99.90;;;;;;4909404;29;20020;-78
2021/12/06 01:39:58;;;;;;;2.55;2.03;;;0.90;99.90;;;;;;4914001;29;20044;-78
2021/12/06 01:42:24;;;;;;;2.33;2.22;;;0.90;99.90;;;;;;4913567;29;20459;-78
2021/12/06 01:44:56;;;;;;;5.53;3.25;;;0.90;99.90;;;;;;4916793;29;20104;-79
2021/12/06 01:47:29;;;;;;;2.83;2.63;;;0.90;99.90;;;;;;4917484;29;20028;-78
2021/12/06 01:50:11;;;;;;;4.50;2.90;;;2.50;99.90;;;;;;4900406;29;20549;-78
2021/12/06 01:52:43;;;;;;;5.82;2.85;;;1.00;99.90;;;;;;4900143;29;20042;-78
2021/12/06 01:55:12;;;;;;;3.17;2.70;;;1.00;99.90;;;;;;4896453;29;20158;-78
2021/12/06 01:57:38;;;;;;;4.47;1.92;;;1.00;99.90;;;;;;4916966;29;20054;-78
2021/12/06 02:00:09;;;;;;;3.90;2.55;;;1.10;99.90;;;;;;4899792;29;20034;-77
2021/12/06 02:02:35;;;;;;;3.58;1.90;;;1.10;99.90;;;;;;4917118;29;20032;-78
2021/12/06 02:05:00;;;;;;;2.83;1.80;;;1.20;99.90;;;;;;4915620;29;20366;-78
2021/12/06 02:07:27;;;;;;;5.65;2.75;;;1.30;99.90;;;;;;4915666;29;20025;-79
2021/12/06 02:09:54;;;;;;;4.60;2.75;;;1.20;99.90;;;;;;4899785;29;20131;-79
2021/12/06 02:12:20;;;;;;;3.40;2.38;;;1.20;99.90;;;;;;4900104;29;20486;-78
2021/12/06 02:15:00;;;;;;;6.25;2.03;;;1.10;99.90;;;;;;4917060;29;20160;-79
2021/12/06 02:17:32;;;;;;;4.18;2.35;;;1.20;99.90;;;;;;4916829;29;20048;-78
2021/12/06 02:20:04;;;;;;;3.15;2.08;;;1.20;99.90;;;;;;4899791;29;20032;-78
2021/12/06 02:22:33;;;;;;;4.15;2.30;;;1.20;99.90;;;;;;4899964;29;20123;-78
2021/12/06 02:25:01;;;;;;;4.97;2.08;;;1.20;99.90;;;;;;4916870;29;20485;-78
2021/12/06 02:27:28;;;;;;;3.85;2.65;;;1.20;99.90;;;;;;4899249;29;20036;-78
2021/12/06 02:29:56;;;;;;;3.30;2.78;;;1.30;99.90;;;;;;4899612;29;20036;-78
2021/12/06 02:32:22;;;;;;;2.65;1.88;;;1.30;99.90;;;;;;4898790;29;20055;-78
2021/12/06 02:34:51;;;;;;;3.08;1.95;;;1.20;99.90;;;;;;4915822;29;20032;-78
2021/12/06 02:37:21;;;;;;;3.53;2.42;;;1.20;99.90;;;;;;4916751;29;20075;-78
2021/12/06 02:39:47;;;;;;;;;;;1.20;99.90;;;;;;4917633;29;20075;-78
2021/12/06 02:42:15;;;;;;;3.20;2.13;;;1.10;99.90;;;;;;4918510;29;19986;-79
2021/12/06 02:44:42;;;;;;;2.08;1.65;;;1.10;99.90;;;;;;4919899;29;20047;-78
2021/12/06 02:47:08;;;;;;;4.75;2.45;;;1.10;99.90;;;;;;4903780;29;20036;-79
2021/12/06 02:49:34;;;;;;;2.55;2.22;;;1.20;99.90;;;;;;4917156;29;20024;-78
2021/12/06 02:52:01;;;;;;;2.35;2.15;;;1.20;99.90;;;;;;4916117;29;20036;-78
2021/12/06 02:54:27;;;;;;;2.90;1.77;;;1.20;99.90;;;;;;4915963;29;20036;-78
2021/12/06 02:57:18;;;;;;;4.85;2.28;;;1.20;99.90;;;;;;4914838;29;20037;-78
2021/12/06 02:59:44;;;;;;;3.65;2.55;;;1.20;99.90;;;;;;4915969;29;20495;-78
2021/12/06 03:02:13;;;;;;;3.35;1.98;;;1.30;99.90;;;;;;4915643;29;20063;-78
2021/12/06 03:04:40;;;;;;;3.20;2.13;;;1.20;99.90;;;;;;4899082;29;20024;-78
2021/12/06 03:07:07;;;;;;;3.17;2.58;;;1.20;99.90;;;;;;4899226;29;20272;-78
2021/12/06 03:09:37;;;;;;;1.83;1.73;;;1.20;99.90;;;;;;4899069;29;20157;-78
2021/12/06 03:12:11;;;;;;;6.60;3.55;;;1.20;99.90;;;;;;4898969;29;20036;-78
2021/12/06 03:14:40;;;;;;;3.42;2.28;;;1.20;99.90;;;;;;4899020;29;20024;-78
2021/12/06 03:17:08;;;;;;;1.30;1.20;;;1.40;99.90;;;;;;4915812;29;20393;-78
2021/12/06 03:19:35;;;;;;;4.20;3.45;;;1.40;99.90;;;;;;4915487;29;20038;-79
2021/12/06 03:22:00;;;;;;;4.22;2.20;;;1.30;99.90;;;;;;4898810;29;20036;-78
2021/12/06 03:24:26;;;;;;;3.88;3.47;;;1.30;99.90;;;;;;4915314;29;20028;-78
2021/12/06 03:26:53;;;;;;;2.58;2.38;;;1.30;99.90;;;;;;4914274;29;20032;-78
2021/12/06 03:29:20;;;;;;;3.17;2.42;;;1.20;99.90;;;;;;4915707;29;20031;-78
2021/12/06 03:31:47;;;;;;;4.90;3.22;;;1.20;99.90;;;;;;4915034;29;20047;-78
2021/12/06 03:34:14;;;;;;;2.78;2.13;;;1.20;99.90;;;;;;4915721;29;20573;-78
2021/12/06 03:36:40;;;;;;;4.43;2.45;;;1.20;99.90;;;;;;4898428;29;20032;-79
2021/12/06 03:39:10;;;;;;;2.60;2.05;;;1.30;99.90;;;;;;4914249;29;20092;-78
2021/12/06 03:41:36;;;;;;;1.65;1.58;;;1.20;99.90;;;;;;4915439;29;20103;-79
2021/12/06 03:44:03;;;;;;;2.10;1.73;;;1.30;99.90;;;;;;4898039;29;20028;-78
2021/12/06 03:46:31;;;;;;;2.88;2.13;;;1.30;99.90;;;;;;4898135;29;20098;-79
2021/12/06 03:48:57;;;;;;;2.95;1.98;;;1.30;99.90;;;;;;4898225;29;20024;-78
2021/12/06 03:51:23;;;;;;;1.77;1.67;;;1.30;99.90;;;;;;4913925;29;20066;-78
2021/12/06 03:53:48;;;;;;;4.85;1.85;;;1.40;99.90;;;;;;4915377;29;20115;-78
2021/12/06 03:56:14;;;;;;;5.10;2.17;;;1.40;99.90;;;;;;4913652;29;20122;-78
2021/12/06 03:58:41;;;;;;;2.10;1.20;;;1.50;99.90;;;;;;4898199;29;20032;-78
2021/12/06 04:01:07;;;;;;;6.35;1.90;;;1.50;99.90;;;;;;4897689;29;20119;-79
2021/12/06 04:03:36;;;;;;;1.42;1.33;;;1.50;99.90;;;;;;4913776;29;20104;-78
2021/12/06 04:06:03;;;;;;;;;;;1.50;99.90;;;;;;4897703;29;20127;-78
2021/12/06 04:08:29;;;;;;;3.13;2.33;;;1.50;99.90;;;;;;4915240;29;19907;-78
2021/12/06 04:10:55;;;;;;;2.05;1.75;;;1.50;99.90;;;;;;4914969;29;20430;-78
2021/12/06 04:13:22;;;;;;;5.53;3.03;;;1.50;99.90;;;;;;4915276;29;20035;-78
2021/12/06 04:15:48;;;;;;;3.35;2.58;;;1.50;99.90;;;;;;4915090;29;20079;-78
2021/12/06 04:18:14;;;;;;;4.22;2.17;;;1.70;99.90;;;;;;4897470;29;20485;-78
2021/12/06 04:20:41;;;;;;;2.67;1.95;;;1.60;99.90;;;;;;4897792;29;20063;-78
2021/12/06 04:23:09;;;;;;;2.28;2.05;;;1.50;99.90;;;;;;4897569;29;20039;-78
2021/12/06 04:25:35;;;;;;;2.35;2.15;;;1.50;99.90;;;;;;4915144;29;20249;-78
2021/12/06 04:28:06;;;;;;;2.65;0.90;;;1.40;99.90;;;;;;4912820;29;20083;-78
2021/12/06 04:30:32;;;;;;;1.38;1.15;;;1.40;99.90;;;;;;4897557;29;20091;-78
2021/12/06 04:32:58;;;;;;;2.65;2.00;;;1.50;99.90;;;;;;4914601;29;20128;-78
2021/12/06 04:35:25;;;;;;;1.40;1.30;;;1.40;99.90;;;;;;4897357;29;20058;-78
2021/12/06 04:37:51;;;;;;;2.85;2.58;;;1.40;99.90;;;;;;4897192;29;20031;-78
2021/12/06 04:40:18;;;;;;;1.25;1.10;;;1.30;99.90;;;;;;4914222;29;20063;-79
2021/12/06 04:42:44;;;;;;;2.38;1.75;;;1.30;99.90;;;;;;4897344;29;20072;-78
2021/12/06 04:45:12;;;;;;;2.05;0.98;;;1.30;99.90;;;;;;4914063;29;20044;-78
2021/12/06 04:47:38;;;;;;;4.32;1.73;;;1.40;99.90;;;;;;4897095;29;20070;-79
2021/12/06 04:50:06;;;;;;;1.23;0.88;;;1.40;99.90;;;;;;4914208;29;20458;-78
2021/12/06 04:52:32;;;;;;;2.70;2.38;;;1.40;99.90;;;;;;4897028;29;20035;-78
2021/12/06 04:55:03;;;;;;;2.05;1.48;;;1.30;99.90;;;;;;4914426;29;20028;-78
2021/12/06 04:57:36;;;;;;;2.83;1.85;;;1.30;99.90;;;;;;4914233;29;20114;-78
2021/12/06 05:00:18;;;;;;;1.38;1.30;;;1.20;99.90;;;;;;4897182;29;20059;-79
2021/12/06 05:02:44;;;;;;;1.40;1.30;;;1.20;99.90;;;;;;4914265;29;20075;-79
2021/12/06 05:05:19;;;;;;;2.13;1.98;;;1.10;99.90;;;;;;4897078;29;20040;-78
2021/12/06 05:07:54;;;;;;;4.03;2.10;;;1.10;99.90;;;;;;4913667;29;20028;-79
2021/12/06 05:10:20;;;;;;;3.13;2.03;;;1.20;99.90;;;;;;4896736;29;20543;-78
2021/12/06 05:12:47;;;;;;;3.33;1.27;;;1.10;99.90;;;;;;4913987;29;20031;-78
2021/12/06 05:15:13;;;;;;;1.48;1.38;;;1.20;99.90;;;;;;4896917;29;20063;-78
2021/12/06 05:17:39;;;;;;;6.57;2.13;;;1.10;99.90;;;;;;4912565;29;20080;-79
2021/12/06 05:20:05;;;;;;;6.00;2.55;;;1.10;99.90;;;;;;4913449;29;20043;-78
2021/12/06 05:22:32;;;;;;;2.92;1.98;;;1.00;99.90;;;;;;4913052;29;20055;-78
2021/12/06 05:24:58;;;;;;;2.72;2.30;;;1.00;99.90;;;;;;4896806;29;20038;-79
2021/12/06 05:27:29;;;;;;;2.00;1.80;;;1.00;99.90;;;;;;4912370;29;20035;-78
2021/12/06 05:29:59;;;;;;;3.03;2.72;;;0.90;99.90;;;;;;4896623;29;20043;-79
2021/12/06 05:32:28;;;;;;;2.25;2.05;;;1.00;99.90;;;;;;4913176;29;20139;-78
2021/12/06 05:35:12;;;;;;;7.03;2.13;;;0.90;99.90;;;;;;4913541;29;20028;-78
2021/12/06 05:37:45;;;;;;;2.08;1.15;;;0.90;99.90;;;;;;4896531;29;20032;-78
2021/12/06 05:40:15;;;;;;;2.70;2.15;;;0.90;99.90;;;;;;4913799;29;20044;-79
2021/12/06 05:42:41;;;;;;;4.32;2.22;;;0.90;99.90;;;;;;4896567;29;20047;-79
2021/12/06 05:45:08;;;;;;;4.13;1.13;;;1.00;99.90;;;;;;4913450;29;20289;-78
2021/12/06 05:47:34;;;;;;;3.35;1.20;;;1.10;99.90;;;;;;4913234;29;20039;-78
2021/12/06 05:50:00;;;;;;;2.67;2.03;;;1.10;99.90;;;;;;4896397;29;20067;-79
2021/12/06 05:52:26;;;;;;;3.17;2.28;;;1.00;99.90;;;;;;4913690;29;20485;-78
2021/12/06 05:54:51;;;;;;;3.53;2.15;;;1.00;99.90;;;;;;4913600;29;20043;-78
2021/12/06 05:57:18;;;;;;;2.15;1.77;;;1.00;99.90;;;;;;4913456;29;20032;-78
2021/12/06 05:59:44;;;;;;;3.28;2.78;;;0.90;99.90;;;;;;4896023;29;20052;-78
2021/12/06 06:02:11;;;;;;;2.40;2.30;;;0.90;99.90;;;;;;4913155;29;20028;-79
2021/12/06 06:04:38;;;;;;;3.22;1.92;;;0.90;99.90;;;;;;4911871;29;20038;-78
2021/12/06 06:07:04;;;;;;;3.20;1.63;;;0.80;99.90;;;;;;4896127;29;20079;-77
2021/12/06 06:09:30;;;;;;;1.40;1.25;;;0.90;99.90;;;;;;4913372;29;20093;-78
2021/12/06 06:11:56;;;;;;;3.13;1.98;;;0.90;99.90;;;;;;4913412;29;20450;-78
2021/12/06 06:14:22;;;;;;;2.90;2.63;;;0.90;99.90;;;;;;4913270;29;20520;-78
2021/12/06 06:16:50;;;;;;;1.20;1.10;;;0.90;99.90;;;;;;4913438;29;20091;-78
2021/12/06 06:19:18;;;;;;;6.13;3.03;;;0.90;99.90;;;;;;4920847;29;20273;-79
2021/12/06 06:21:43;;;;;;;1.83;1.67;;;0.90;99.90;;;;;;4918147;29;20032;-78
2021/12/06 06:24:09;;;;;;;4.47;1.52;;;1.00;99.90;;;;;;4895559;29;20032;-78
2021/12/06 06:26:35;;;;;;;2.92;1.73;;;1.00;99.90;;;;;;4920636;29;20047;-78
2021/12/06 06:29:04;;;;;;;2.05;1.77;;;1.00;99.90;;;;;;4922787;29;20020;-78
2021/12/06 06:31:30;;;;;;;3.35;1.88;;;1.10;99.90;;;;;;4925859;29;20071;-78
2021/12/06 06:33:55;;;;;;;2.88;1.50;;;1.20;99.90;;;;;;4926409;29;20461;-79
2021/12/06 06:36:21;;;;;;;3.38;2.22;;;1.10;99.90;;;;;;4924671;29;20040;-79
2021/12/06 06:38:47;;;;;;;2.55;2.35;;;1.10;99.90;;;;;;4909148;29;20080;-79
2021/12/06 06:41:13;;;;;;;5.80;2.40;;;1.00;99.90;;;;;;4914194;29;20084;-79
2021/12/06 06:43:38;;;;;;;2.75;2.13;;;1.00;99.90;;;;;;4908420;29;20339;-79
2021/12/06 06:46:06;;;;;;;2.85;1.50;;;1.10;99.90;;;;;;4907723;29;20036;-79
2021/12/06 06:48:32;;;;;;;3.05;2.17;;;1.10;99.90;;;;;;4924534;29;20328;-79
2021/12/06 06:50:58;;;;;;;1.98;1.88;;;1.10;99.90;;;;;;4908078;29;20032;-78
2021/12/06 06:53:26;;;;;;;2.20;2.03;;;1.10;99.90;;;;;;4925386;29;20050;-79
2021/12/06 06:55:53;;;;;;;3.95;1.65;;;1.10;99.90;;;;;;4925074;29;20024;-79
2021/12/06 06:58:18;;;;;;;2.95;2.13;;;1.10;99.90;;;;;;4908540;29;20307;-78
2021/12/06 07:00:44;;;;;;;2.33;2.08;;;1.20;99.90;;;;;;4909769;29;20028;-78
2021/12/06 07:03:10;;;;;;;7.93;2.95;;;1.10;99.90;;;;;;4925382;29;20083;-78
2021/12/06 07:05:37;;;;;;;2.17;2.03;;;1.10;99.90;;;;;;4925273;29;20059;-79
2021/12/06 07:08:03;;;;;;;13.52;3.67;;;1.20;99.90;;;;;;4928096;29;20044;-79
2021/12/06 07:10:29;;;;;;;6.32;2.85;;;1.20;99.90;;;;;;4911765;29;20046;-79
2021/12/06 07:12:56;;;;;;;2.85;2.58;;;1.20;99.90;;;;;;4927252;29;20308;-78
2021/12/06 07:15:29;;;;;;;2.50;2.30;;;1.20;99.90;;;;;;4908422;29;20032;-79
2021/12/06 07:17:56;;;;;;;1.92;1.83;;;1.20;99.90;;;;;;4925445;29;20016;-78
2021/12/06 07:20:23;;;;;;;3.00;2.80;;;1.20;99.90;;;;;;4908575;29;20028;-79
2021/12/06 07:22:52;;;;;;;6.65;3.03;;;1.30;99.90;;;;;;4908476;29;20027;-78
2021/12/06 07:25:20;;;;;;;7.35;3.20;;;1.20;99.90;;;;;;4908524;29;20048;-78
2021/12/06 07:27:47;;;;;;;2.97;2.20;;;1.30;99.90;;;;;;4908823;29;20359;-79
2021/12/06 07:30:13;;;;;;;3.95;3.08;;;1.40;99.90;;;;;;4925481;29;20024;-78
2021/12/06 07:32:40;;;;;;;4.82;2.95;;;1.40;99.90;;;;;;4924561;29;20123;-79
2021/12/06 07:35:08;;;;;;;2.78;2.00;;;1.30;99.90;;;;;;4925020;29;20080;-78
2021/12/06 07:37:34;;;;;;;2.88;2.67;;;1.30;99.90;;;;;;4907816;29;20054;-78
2021/12/06 07:39:59;;;;;;;3.60;2.22;;;1.10;99.90;;;;;;4908268;29;20036;-78
2021/12/06 07:42:25;;;;;;;1.35;1.23;;;1.20;99.90;;;;;;4923861;29;20051;-79
2021/12/06 07:44:52;;;;;;;3.20;1.88;;;1.20;99.90;;;;;;4924799;29;20036;-79
2021/12/06 07:47:19;;;;;;;1.05;0.82;;;1.20;99.90;;;;;;4907191;29;20339;-78
2021/12/06 07:49:45;;;;;;;1.70;1.17;;;1.20;99.90;;;;;;4925208;29;20016;-79
2021/12/06 07:52:12;;;;;;;9.73;2.03;;;1.30;99.90;;;;;;4924802;29;20041;-78
2021/12/06 07:54:40;;;;;;;3.53;1.30;;;1.30;99.90;;;;;;4925057;29;20020;-78
2021/12/06 07:57:07;;;;;;;3.58;2.10;;;1.40;99.90;;;;;;4925318;29;20025;-79
2021/12/06 07:59:34;;;;;;;3.17;2.00;;;1.40;99.90;;;;;;4925558;29;20084;-80
2021/12/06 08:02:00;;;;;;;1.23;1.13;;;1.40;99.90;;;;;;4924113;29;20032;-79
2021/12/06 08:04:26;;;;;;;1.67;1.20;;;1.50;99.90;;;;;;4925186;29;20024;-79
2021/12/06 08:06:52;;;;;;;3.33;1.63;;;1.40;99.90;;;;;;4924425;29;20039;-79
2021/12/06 08:09:18;;;;;;;1.58;0.80;;;1.40;99.90;;;;;;4908055;29;20031;-79
2021/12/06 08:11:44;;;;;;;0.60;0.60;;;1.50;99.90;;;;;;4907791;29;20095;-80
2021/12/06 08:14:10;;;;;;;1.55;1.10;;;1.40;99.90;;;;;;4925734;29;20024;-80
2021/12/06 08:16:40;;;;;;;2.13;1.42;;;1.50;99.90;;;;;;4907507;29;20075;-80
2021/12/06 08:19:07;;;;;;;3.45;1.77;;;1.60;99.90;;;;;;4925119;29;20320;-80
2021/12/06 08:21:33;;;;;;;1.50;1.35;;;1.80;99.90;;;;;;4925518;29;20036;-79
2021/12/06 08:24:00;;;;;;;2.05;1.90;;;1.80;99.90;;;;;;4898520;29;20536;-79
2021/12/06 08:26:29;;;;;;;7.05;2.53;;;1.90;99.90;;;;;;4898279;29;20040;-79
2021/12/06 08:28:56;;;;;;;6.45;2.17;;;2.00;99.90;;;;;;4915005;29;20036;-80
2021/12/06 08:31:22;;;;;;;4.10;1.63;;;2.00;99.90;;;;;;4897428;29;20528;-79
2021/12/06 08:33:53;;;;;;;2.92;1.83;;;2.20;99.90;;;;;;4897882;29;20028;-80
2021/12/06 08:36:20;;;;;;;2.10;1.30;;;2.00;99.90;;;;;;4897898;29;20032;-80
2021/12/06 08:38:47;;;;;;;1.20;0.90;;;2.10;99.90;;;;;;4897201;29;20024;-80
2021/12/06 08:41:16;;;;;;;2.17;1.75;;;2.10;99.90;;;;;;4922839;28;20028;-79
2021/12/06 08:43:44;;;;;;;2.33;2.13;;;2.10;99.90;;;;;;4898451;28;20134;-81
2021/12/06 08:48:45;;;;;;;1.55;1.45;;;2.20;99.90;;;;;;4951303;28;20078;-83
2021/12/06 08:53:43;;;;;;;3.00;1.73;;;2.20;99.90;;;;;;5433248;23;20055;-84
2021/12/06 08:56:09;;;;;;;0.77;0.75;;;0.60;99.90;;;;;;4938335;28;20051;-83
2021/12/06 09:01:50;;;;;;;1.80;1.48;;;2.10;99.90;;;;;;5077371;23;20063;-82
2021/12/06 09:04:40;;;;;;;3.35;1.80;;;1.90;99.90;;;;;;5038370;23;20107;-86
2021/12/06 09:07:45;;;;;;;1.55;1.45;;;2.40;99.90;;;;;;4959895;28;20016;-83
2021/12/06 09:13:28;;;;;;;3.08;1.35;;;2.60;99.90;;;;;;5115245;23;20071;-83
2021/12/06 10:05:25;;;;;;;5.53;3.67;;;3.20;99.90;;;;;;4964737;23;20249;-83
2021/12/06 10:07:53;;;;;;;3.53;1.75;;;3.40;99.90;;;;;;4895629;29;20024;-80
2021/12/06 10:10:19;;;;;;;2.05;1.27;;;3.50;99.90;;;;;;4899193;29;20089;-80
2021/12/06 10:12:49;;;;;;;1.80;1.58;;;3.40;99.90;;;;;;4882391;29;20421;-81
2021/12/06 10:15:14;;;;;;;;;;;3.30;99.90;;;;;;4882030;29;20055;-80
2021/12/06 10:17:41;;;;;;;2.35;1.33;;;3.30;99.90;;;;;;4897421;29;20011;-80
2021/12/06 10:20:09;;;;;;;2.67;1.48;;;3.30;99.90;;;;;;4881414;29;20038;-80
2021/12/06 10:22:36;;;;;;;1.83;1.73;;;3.40;99.90;;;;;;4896743;29;20108;-80
2021/12/06 10:25:02;;;;;;;1.48;1.38;;;3.40;99.90;;;;;;4898094;29;20033;-80
2021/12/06 10:27:28;;;;;;;2.05;1.65;;;3.40;99.90;;;;;;4880348;29;20032;-80
2021/12/06 10:30:03;;;;;;;1.90;1.00;;;3.30;99.90;;;;;;4880889;29;20508;-80
2021/12/06 10:32:32;;;;;;;1.95;1.42;;;3.40;99.90;;;;;;4897261;29;20032;-79
2021/12/06 10:35:09;;;;;;;0.70;0.70;;;3.40;99.90;;;;;;4897146;29;20021;-80
2021/12/06 10:37:46;;;;;;;1.88;1.30;;;3.40;99.90;;;;;;4858258;29;20309;-80
2021/12/06 10:43:00;;;;;;;1.30;1.17;;;3.40;99.90;;;;;;5306694;23;20562;-78
2021/12/06 10:45:30;;;;;;;1.73;0.88;;;3.50;99.90;;;;;;4937355;29;20055;-80
2021/12/06 10:48:19;;;;;;;1.27;1.27;;;3.60;99.90;;;;;;4917344;29;20408;-79
2021/12/06 10:50:46;;;;;;;2.58;1.27;;;3.60;99.90;;;;;;4935164;29;20036;-79
2021/12/06 10:53:14;;;;;;;5.75;3.85;;;3.50;99.90;;;;;;4917209;29;20488;-79
2021/12/06 10:55:41;;;;;;;0.98;0.93;;;3.60;99.90;;;;;;4918161;29;20079;-80
2021/12/06 10:58:12;;;;;;;5.95;1.65;;;3.70;99.90;;;;;;4917917;29;20023;-79
2021/12/06 11:01:02;;;;;;;2.15;1.35;;;3.90;99.90;;;;;;4948466;28;20035;-84
2021/12/06 11:03:45;;;;;;;1.17;1.08;;;3.80;99.90;;;;;;4924269;29;20036;-78
2021/12/06 11:06:41;;;;;;;1.63;0.95;;;3.60;99.90;;;;;;4924546;29;20036;-81
2021/12/06 11:09:09;;;;;;;0.82;0.82;;;3.50;99.90;;;;;;4940062;29;20071;-81
2021/12/06 11:11:38;;;;;;;1.85;0.95;;;3.60;99.90;;;;;;4924601;29;20120;-81
2021/12/06 11:14:15;;;;;;;1.02;0.93;;;3.60;99.90;;;;;;4941518;29;20028;-81
2021/12/06 11:16:47;;;;;;;1.50;1.25;;;3.80;99.90;;;;;;4924141;29;20028;-81
2021/12/06 11:19:16;;;;;;;0.93;0.75;;;3.70;99.90;;;;;;4925027;29;20032;-81
2021/12/06 11:21:47;;;;;;;;;;;3.70;99.90;;;;;;4924294;29;20086;-80
2021/12/06 11:24:21;;;;;;;1.13;0.70;;;3.60;99.90;;;;;;4919235;29;19914;-81
2021/12/06 11:27:02;;;;;;;1.38;1.00;;;3.70;99.90;;;;;;4937068;29;20047;-81
2021/12/06 11:29:35;;;;;;;3.60;1.00;;;3.70;99.90;;;;;;4922435;29;20035;-81
2021/12/06 11:32:06;;;;;;;1.60;1.38;;;3.70;99.90;;;;;;4940459;29;20023;-81
2021/12/06 11:34:45;;;;;;;1.42;1.23;;;3.60;99.90;;;;;;4922902;29;20039;-81
2021/12/06 11:37:23;;;;;;;1.00;0.85;;;3.80;99.90;;;;;;4924103;29;20031;-75
2021/12/06 11:40:12;;;;;;;3.50;1.40;;;3.70;99.90;;;;;;4914476;29;20063;-79
2021/12/06 11:43:00;;;;;;;0.90;0.90;;;3.90;99.90;;;;;;4908973;29;20405;-80
2021/12/06 11:45:46;;;;;;;0.88;0.88;;;4.00;99.90;;;;;;4917139;29;20474;-78
2021/12/06 11:48:27;;;;;;;2.25;1.20;;;4.00;99.90;;;;;;4914807;29;20066;-75
2021/12/06 11:51:15;;;;;;;0.63;0.63;;;3.90;99.90;;;;;;4897076;29;20043;-78
2021/12/06 11:53:46;;;;;;;1.10;0.95;;;4.10;99.90;;;;;;4913446;29;20012;-79
2021/12/06 11:56:25;;;;;;;2.10;1.40;;;4.10;99.90;;;;;;4895520;29;20036;-78
2021/12/06 11:58:56;;;;;;;0.88;0.88;;;3.90;99.90;;;;;;4896240;29;20028;-78
2021/12/06 12:01:38;;;;;;;1.77;1.42;;;4.10;99.90;;;;;;4912771;29;20024;-78
2021/12/06 12:04:25;;;;;;;1.58;1.48;;;3.90;99.90;;;;;;4904045;29;20040;-77
2021/12/06 12:07:03;;;;;;;2.15;1.52;;;3.80;99.90;;;;;;4911892;29;20042;-77
2021/12/06 12:09:31;;;;;;;6.43;0.95;;;3.80;99.90;;;;;;4907391;29;20860;-77
2021/12/06 12:12:15;;;;;;;1.35;1.23;;;3.80;99.90;;;;;;4909019;29;20033;-79
2021/12/06 12:15:01;;;;;;;2.85;1.15;;;3.70;99.90;;;;;;4907326;29;20032;-79
2021/12/06 12:17:28;;;;;;;2.38;1.02;;;3.80;99.90;;;;;;4906912;29;20032;-78
2021/12/06 12:19:56;;;;;;;1.02;0.93;;;4.00;99.90;;;;;;4906648;29;20032;-79
2021/12/06 12:22:23;;;;;;;1.40;1.30;;;5.30;99.90;;;;;;4890472;29;20044;-79
2021/12/06 12:24:54;;;;;;;1.40;1.17;;;4.10;99.90;;;;;;4889727;29;20072;-79
2021/12/06 12:29:54;;;;;;;5.57;1.45;;;4.20;99.90;;;;;;4907162;29;20344;-79
2021/12/06 12:32:20;;;;;;;0.88;0.85;;;4.10;99.90;;;;;;4890337;29;20036;-79
2021/12/06 12:34:48;;;;;;;1.90;1.23;;;4.20;99.90;;;;;;4908117;29;20278;-79
2021/12/06 12:37:16;;;;;;;1.85;1.25;;;4.30;99.90;;;;;;4925751;29;20039;-78
2021/12/06 12:39:42;;;;;;;0.60;0.60;;;4.30;99.90;;;;;;4945783;29;20027;-79
2021/12/06 12:42:09;;;;;;;1.45;1.10;;;4.40;99.90;;;;;;4947258;29;20050;-78
2021/12/06 12:44:49;;;;;;;2.15;1.27;;;4.50;99.90;;;;;;4946205;29;20094;-79
2021/12/06 12:47:27;;;;;;;1.17;0.75;;;4.40;99.90;;;;;;4931110;29;20047;-79
2021/12/06 12:50:00;;;;;;;0.95;0.82;;;4.30;99.90;;;;;;4929412;29;20432;-79
2021/12/06 12:52:43;;;;;;;0.73;0.73;;;4.40;99.90;;;;;;4946185;29;20032;-79
2021/12/06 12:55:20;;;;;;;1.38;1.27;;;4.70;99.90;;;;;;4929520;29;20034;-79
2021/12/06 12:57:46;;;;;;;0.32;0.32;;;4.90;99.90;;;;;;4947404;29;20130;-79
2021/12/06 13:00:22;;;;;;;1.17;1.15;;;5.10;99.90;;;;;;4928165;29;20526;-79
2021/12/06 13:02:48;;;;;;;1.58;1.08;;;5.90;99.90;;;;;;4945566;29;20336;-79
2021/12/06 13:05:20;;;;;;;1.25;1.10;;;6.60;99.90;;;;;;4949817;29;20039;-79
2021/12/06 13:07:50;;;;;;;1.17;0.70;;;6.80;99.90;;;;;;4938585;29;20464;-79
2021/12/06 13:10:30;;;;;;;;;;;6.00;99.90;;;;;;4958068;29;20027;-79
2021/12/06 13:13:24;;;;;;;1.35;1.10;;;5.80;99.90;;;;;;4955252;29;19917;-79
2021/12/06 13:16:02;;;;;;;0.70;0.70;;;5.40;99.90;;;;;;4935876;29;20027;-78
2021/12/06 13:19:01;;;;;;;1.08;0.70;;;5.00;99.90;;;;;;4945883;29;20496;-79
2021/12/06 13:21:32;;;;;;;0.73;0.50;;;4.80;99.90;;;;;;4934474;29;20487;-78
2021/12/06 13:24:39;;;;;;;1.05;0.55;;;4.90;99.90;;;;;;4936164;29;20063;-78
2021/12/06 13:27:24;;;;;;;3.08;1.55;;;5.30;99.90;;;;;;4904069;29;20046;-79
2021/12/06 13:29:58;;;;;;;0.70;0.70;;;5.70;99.90;;;;;;4933867;29;20415;-81
2021/12/06 13:33:02;;;;;;;4.50;1.58;;;6.20;99.90;;;;;;4958791;29;20011;-82
2021/12/06 13:35:34;;;;;;;1.58;0.95;;;5.80;99.90;;;;;;4922062;29;20137;-77
2021/12/06 13:38:37;;;;;;;0.95;0.60;;;5.30;99.90;;;;;;4912227;29;20111;-78
2021/12/06 13:41:10;;;;;;;0.55;0.55;;;5.30;99.90;;;;;;4911799;29;20032;-77
2021/12/06 13:44:07;;;;;;;0.60;0.60;;;5.60;99.90;;;;;;4916196;29;20318;-80
2021/12/06 13:46:36;;;;;;;1.45;0.90;;;5.50;99.90;;;;;;4910124;29;20040;-77
2021/12/06 13:49:12;;;;;;;3.22;0.40;;;5.20;99.90;;;;;;4911319;29;20035;-77
2021/12/06 13:51:55;;;;;;;0.98;0.70;;;4.90;99.90;;;;;;4910842;29;20430;-78
2021/12/06 13:54:35;;;;;;;1.35;0.60;;;4.70;99.90;;;;;;4910010;29;20028;-77
2021/12/06 13:57:05;;;;;;;0.50;0.50;;;4.50;99.90;;;;;;4910145;29;20036;-78
2021/12/06 13:59:46;;;;;;;1.25;0.57;;;5.40;99.90;;;;;;4909014;29;20477;-78
2021/12/06 14:02:24;;;;;;;0.68;0.60;;;6.20;99.90;;;;;;4910594;29;20501;-78
2021/12/06 14:04:51;;;;;;;0.75;0.68;;;5.80;99.90;;;;;;4912285;29;20635;-79
2021/12/06 14:07:33;;;;;;;0.68;0.68;;;5.60;99.90;;;;;;4911968;29;20036;-77
2021/12/06 14:10:00;;;;;;;0.75;0.75;;;5.20;99.90;;;;;;4906120;29;20028;-77
2021/12/06 14:12:31;;;;;;;0.55;0.40;;;5.00;99.90;;;;;;4909642;29;20028;-78
2021/12/06 14:15:07;;;;;;;0.60;0.60;;;5.70;99.90;;;;;;4910248;29;20079;-79
2021/12/06 14:17:36;;;;;;;0.80;0.80;;;6.40;99.90;;;;;;4910921;29;20111;-78
2021/12/06 14:20:28;;;;;;;1.17;0.60;;;6.40;99.90;;;;;;4909681;29;20127;-78
2021/12/06 14:22:57;;;;;;;0.43;0.40;;;7.10;99.90;;;;;;4905807;29;20084;-79
2021/12/06 14:25:22;;;;;;;0.40;0.40;;;7.00;99.90;;;;;;4909504;29;20195;-78
2021/12/06 14:27:49;;;;;;;1.23;0.50;;;7.30;99.90;;;;;;4907774;29;20164;-78
2021/12/06 14:30:22;;;;;;;0.25;0.25;;;7.40;99.90;;;;;;4947142;29;20047;-79
2021/12/06 14:32:53;;;;;;;0.57;0.57;;;7.40;99.90;;;;;;4947602;29;20085;-79